Flight Track Log - Related Links

Times and Time Zones

All times are in EDT time to prevent confusion due to time zone crossing. See the UAL3821 flight status page for this flight to view local times or setup timezone preferences in your user account.

Time Position Orientation Groundspeed Altitude Reporting Facility
EDT Latitude Longitude Course Direction KTS MPH feet Rate Location/Type
Mon 05:38:33 AM 38.3594 -81.6436 311° West 172 198 3,300  Level Indianapolis Center
Mon 05:39:34 AM 38.4025 -81.6889 321° Northwest 199 229 6,100 2,182 Climbing Indianapolis Center
Mon 05:40:00 AM 38.5633 -81.8000 North  Level FlightAware Approximate
Mon 05:40:34 AM 38.4436 -81.7281 323° Northwest 223 257 7,700  Level Indianapolis Center
Mon 05:41:00 AM 38.6291 -81.8728 318° Northwest  Level FlightAware Approximate
Mon 05:41:34 AM 38.5017 -81.7833 323° Northwest 256 295 9,900  Level Indianapolis Center
Mon 05:42:00 AM 38.6938 -81.9492 317° Northwest  Level FlightAware Approximate
Mon 05:42:34 AM 38.5703 -81.8508 322° Northwest 306 352 10,800  Level Indianapolis Center
Mon 05:43:00 AM 38.7571 -82.0273 311° West  Level FlightAware Approximate
Mon 05:43:35 AM 38.6483 -81.9247 324° Northwest 341 392 12,600  Level Indianapolis Center
Mon 05:44:35 AM 38.7253 -81.9978 323° Northwest 342 394 14,500 1,750 Climbing Indianapolis Center
Mon 05:45:35 AM 38.7947 -82.0767 318° Northwest 333 383 16,100 1,600 Climbing Indianapolis Center
Mon 05:46:35 AM 38.8606 -82.1611 315° West 334 384 17,700 1,488 Climbing Indianapolis Center
Mon 05:47:36 AM 38.9275 -82.2469 315° West 338 389 19,100 1,289 Climbing Indianapolis Center
Mon 05:48:36 AM 38.9964 -82.3353 315° West 344 396 20,300 1,200 Climbing Indianapolis Center
Mon 05:49:36 AM 39.0669 -82.4272 315° West 356 410 21,500 1,190 Climbing Indianapolis Center
Mon 05:50:37 AM 39.1394 -82.5208 315° West 367 422 22,700 1,190 Climbing Indianapolis Center
Mon 05:51:37 AM 39.2153 -82.6183 315° West 377 434 23,900 1,200 Climbing Indianapolis Center
Mon 05:52:37 AM 39.2900 -82.7144 315° West 377 434 25,100 1,200 Climbing Indianapolis Center
Mon 05:53:37 AM 39.3639 -82.8119 314° West 376 433 26,300 1,190 Climbing Indianapolis Center
Mon 05:54:38 AM 39.4381 -82.9094 315° West 377 434 27,500 1,190 Climbing Indianapolis Center
Mon 05:55:38 AM 39.5111 -83.0053 315° West 373 429 28,700 1,200 Climbing Indianapolis Center
Mon 05:56:38 AM 39.5833 -83.1008 314° West 369 425 29,900 1,190 Climbing Indianapolis Center
Mon 05:57:39 AM 39.6553 -83.1953 315° West 366 421 31,100 1,190 Climbing Indianapolis Center
Mon 05:58:39 AM 39.7278 -83.2908 315° West 367 422 32,300 1,200 Climbing Indianapolis Center
Mon 05:59:39 AM 39.8006 -83.3903 314° West 365 420 33,500 1,140 Climbing Indianapolis Center
Mon 06:00:40 AM 39.8608 -83.4794 311° West 365 420 34,600 1,190 Climbing Indianapolis Center
Mon 06:01:40 AM 39.9369 -83.5939 311° West 358 412 35,900 700 Climbing Indianapolis Center
Mon 06:02:40 AM 40.0031 -83.6928 311° West 358 412 36,000 50 Climbing Indianapolis Center
Mon 06:03:41 AM 40.0711 -83.7939 311° West 365 420 36,000  Level Indianapolis Center
Mon 06:04:41 AM 40.1286 -83.8808 311° West 373 429 36,000  Level Indianapolis Center
Mon 06:05:41 AM 40.1961 -83.9817 311° West 367 422 36,000  Level Indianapolis Center
Mon 06:06:42 AM 40.2619 -84.0825 311° West 362 417 36,000  Level Indianapolis Center
Mon 06:07:42 AM 40.3294 -84.1842 311° West 367 422 36,000  Level Indianapolis Center
Mon 06:08:42 AM 40.3969 -84.2856 311° West 367 422 36,000  Level Indianapolis Center
Mon 06:09:43 AM 40.4633 -84.3881 310° West 366 421 36,000  Level Indianapolis Center
Mon 06:10:43 AM 40.5297 -84.4908 310° West 366 421 36,000  Level Indianapolis Center
Mon 06:11:44 AM 40.5972 -84.5931 311° West 364 419 36,000  Level Indianapolis Center
Mon 06:12:44 AM 40.6639 -84.6961 310° West 366 421 36,000  Level Indianapolis Center
Mon 06:13:44 AM 40.7303 -84.7992 310° West 366 421 36,000  Level Indianapolis Center
Mon 06:14:35 AM 40.7844 -84.8814 311° West 364 419 36,000  Level Chicago Center
Mon 06:15:35 AM 40.8361 -84.9922 302° West 358 412 36,000  Level Chicago Center
Mon 06:16:36 AM 40.8747 -85.1139 293° West 358 412 36,000 -738 Level Chicago Center
Mon 06:17:37 AM 40.9142 -85.2342 293° West 357 411 34,500 -1,736 Descending Chicago Center
Mon 06:18:37 AM 40.9525 -85.3536 293° West 355 409 32,500 -2,050 Descending Chicago Center
Mon 06:19:37 AM 40.9933 -85.4786 293° West 362 417 30,400 -2,033 Descending Chicago Center
Mon 06:20:38 AM 41.0375 -85.6164 293° West 396 456 28,400 -1,983 Descending Chicago Center
Mon 06:21:38 AM 41.0833 -85.7617 293° West 418 481 26,400 -1,983 Descending Chicago Center
Mon 06:22:39 AM 41.1292 -85.9061 293° West 424 488 24,400 -1,934 Descending Chicago Center
Mon 06:23:39 AM 41.1744 -86.0514 293° West 425 489 22,500 -1,983 Descending Chicago Center
Mon 06:24:40 AM 41.2186 -86.1897 293° West 414 476 20,400 -1,230 Descending Chicago Center
Mon 06:25:41 AM 41.2603 -86.3236 293° West 399 459 20,000 -446 Descending Chicago Center
Mon 06:26:41 AM 41.3019 -86.4594 292° West 396 456 19,500 -1,190 Descending Chicago Center
Mon 06:27:42 AM 41.3433 -86.5925 293° West 393 452 17,600 -2,132 Descending Chicago Center
Mon 06:28:42 AM 41.3906 -86.7450 292° West 376 433 15,200 -2,231 Descending Chicago Center
Mon 06:29:43 AM 41.4275 -86.8689 292° West 367 422 13,100 -1,967 Descending Chicago Center
Mon 06:30:44 AM 41.4644 -86.9867 293° West 351 404 11,200 -1,041 Descending Chicago Center
Mon 06:31:44 AM 41.4989 -87.1031 292° West 341 392 11,000 -99 Descending Chicago Center
Mon 06:32:45 AM 41.5467 -87.2094 301° West 351 404 11,000  Level Chicago Center
Mon 06:33:45 AM 41.6075 -87.3081 310° West 348 400 11,000 -248 Level Chicago Center
Mon 06:34:46 AM 41.6594 -87.3869 311° West 292 336 10,500 -1,033 Descending Chicago Center
Mon 06:35:47 AM 41.7058 -87.4608 310° West 263 303 8,900 -1,587 Descending Chicago Center
Mon 06:36:47 AM 41.7592 -87.5128 324° Northwest 256 295 7,300 -1,041 Descending Chicago Center
Mon 06:37:48 AM 41.8283 -87.5097 North 258 297 6,800 -689 Descending Chicago Center
Mon 06:38:49 AM 41.8942 -87.5067 North 245 282 5,900 -893 Descending Chicago Center
Mon 06:39:49 AM 41.9433 -87.5386 334° Northwest 220 253 5,000 2,529 Descending Chicago Center
Mon 06:40:50 AM 41.9711 -87.6092 298° West 220 253 11,000 2,951 Climbing Chicago Center
Mon 06:41:51 AM 41.9697 -87.6647 268° West 190 219 11,000  Level Chicago Center
Mon 06:42:51 AM 41.9708 -87.7172 272° West 185 213 11,000  Level Chicago Center
Mon 06:43:52 AM 41.9689 -87.7839 268° West 177 204 11,000  Level Chicago Center
Mon 06:44:53 AM 41.9675 -87.8303 268° West 147 169 11,000  Level Chicago Center

Login

Don't have an account? Register now (free) for customized features, flight alerts, and more!